sensor_id;sensor_type;location;lat;lon;timestamp;P1;durP1;ratioP1;P2;durP2;ratioP2
63016;SDS011;50274;45.640;11.756;2023-03-14T00:00:53;27.33;;;16.13;;
63016;SDS011;50274;45.640;11.756;2023-03-14T00:03:19;21.88;;;15.18;;
63016;SDS011;50274;45.640;11.756;2023-03-14T00:05:45;23.40;;;15.87;;
63016;SDS011;50274;45.640;11.756;2023-03-14T00:08:11;23.52;;;15.30;;
63016;SDS011;50274;45.640;11.756;2023-03-14T00:10:37;24.05;;;15.55;;
63016;SDS011;50274;45.640;11.756;2023-03-14T00:13:04;21.25;;;14.48;;
63016;SDS011;50274;45.640;11.756;2023-03-14T00:15:31;22.13;;;15.13;;
63016;SDS011;50274;45.640;11.756;2023-03-14T00:18:00;27.75;;;16.15;;
63016;SDS011;50274;45.640;11.756;2023-03-14T00:20:26;22.20;;;14.52;;
63016;SDS011;50274;45.640;11.756;2023-03-14T00:22:52;21.60;;;15.10;;
63016;SDS011;50274;45.640;11.756;2023-03-14T00:25:18;22.83;;;14.40;;
63016;SDS011;50274;45.640;11.756;2023-03-14T00:27:46;30.05;;;16.00;;
63016;SDS011;50274;45.640;11.756;2023-03-14T00:30:15;26.17;;;16.02;;
63016;SDS011;50274;45.640;11.756;2023-03-14T00:32:41;25.33;;;16.55;;
63016;SDS011;50274;45.640;11.756;2023-03-14T00:35:09;23.03;;;15.50;;
63016;SDS011;50274;45.640;11.756;2023-03-14T00:37:35;28.25;;;15.88;;
63016;SDS011;50274;45.640;11.756;2023-03-14T00:40:01;21.40;;;14.48;;
63016;SDS011;50274;45.640;11.756;2023-03-14T00:42:27;24.27;;;14.52;;
63016;SDS011;50274;45.640;11.756;2023-03-14T00:44:53;22.87;;;13.67;;
63016;SDS011;50274;45.640;11.756;2023-03-14T00:47:19;22.75;;;14.25;;
63016;SDS011;50274;45.640;11.756;2023-03-14T00:49:44;19.73;;;12.93;;
63016;SDS011;50274;45.640;11.756;2023-03-14T00:52:16;19.95;;;13.30;;
63016;SDS011;50274;45.640;11.756;2023-03-14T00:54:41;21.13;;;13.73;;
63016;SDS011;50274;45.640;11.756;2023-03-14T00:57:09;18.85;;;13.00;;
63016;SDS011;50274;45.640;11.756;2023-03-14T00:59:35;17.67;;;12.00;;
63016;SDS011;50274;45.640;11.756;2023-03-14T01:02:04;17.92;;;12.07;;
63016;SDS011;50274;45.640;11.756;2023-03-14T01:04:30;22.38;;;13.95;;
63016;SDS011;50274;45.640;11.756;2023-03-14T01:06:56;19.60;;;12.88;;
63016;SDS011;50274;45.640;11.756;2023-03-14T01:09:22;20.97;;;13.10;;
63016;SDS011;50274;45.640;11.756;2023-03-14T01:11:47;19.85;;;13.05;;
63016;SDS011;50274;45.640;11.756;2023-03-14T01:14:16;20.45;;;12.85;;
63016;SDS011;50274;45.640;11.756;2023-03-14T01:16:42;18.07;;;12.00;;
63016;SDS011;50274;45.640;11.756;2023-03-14T01:19:10;20.40;;;13.68;;
63016;SDS011;50274;45.640;11.756;2023-03-14T01:21:36;20.30;;;13.02;;
63016;SDS011;50274;45.640;11.756;2023-03-14T01:24:04;18.85;;;12.45;;
63016;SDS011;50274;45.640;11.756;2023-03-14T01:26:31;20.63;;;13.23;;
63016;SDS011;50274;45.640;11.756;2023-03-14T01:29:01;18.45;;;12.68;;
63016;SDS011;50274;45.640;11.756;2023-03-14T01:31:28;17.95;;;11.75;;
63016;SDS011;50274;45.640;11.756;2023-03-14T01:33:54;19.50;;;12.80;;
63016;SDS011;50274;45.640;11.756;2023-03-14T01:36:20;18.03;;;11.70;;
63016;SDS011;50274;45.640;11.756;2023-03-14T01:38:48;19.13;;;12.27;;
63016;SDS011;50274;45.640;11.756;2023-03-14T01:41:19;18.90;;;11.98;;
63016;SDS011;50274;45.640;11.756;2023-03-14T01:43:47;15.77;;;10.80;;
63016;SDS011;50274;45.640;11.756;2023-03-14T01:51:53;14.02;;;9.27;;
63016;SDS011;50274;45.640;11.756;2023-03-14T01:54:40;15.40;;;9.05;;
63016;SDS011;50274;45.640;11.756;2023-03-14T01:59:55;16.90;;;9.30;;
63016;SDS011;50274;45.640;11.756;2023-03-14T02:02:27;14.00;;;9.03;;
63016;SDS011;50274;45.640;11.756;2023-03-14T02:04:54;12.57;;;7.93;;
63016;SDS011;50274;45.640;11.756;2023-03-14T02:07:30;13.55;;;8.23;;
63016;SDS011;50274;45.640;11.756;2023-03-14T02:10:05;12.77;;;8.02;;
63016;SDS011;50274;45.640;11.756;2023-03-14T02:12:33;12.63;;;7.53;;
63016;SDS011;50274;45.640;11.756;2023-03-14T02:15:00;13.53;;;9.10;;
63016;SDS011;50274;45.640;11.756;2023-03-14T02:17:26;11.40;;;7.85;;
63016;SDS011;50274;45.640;11.756;2023-03-14T02:22:44;11.48;;;8.10;;
63016;SDS011;50274;45.640;11.756;2023-03-14T02:27:51;12.07;;;7.85;;
63016;SDS011;50274;45.640;11.756;2023-03-14T02:30:18;14.75;;;8.55;;
63016;SDS011;50274;45.640;11.756;2023-03-14T02:32:47;14.75;;;9.18;;
63016;SDS011;50274;45.640;11.756;2023-03-14T02:35:21;13.85;;;8.93;;
63016;SDS011;50274;45.640;11.756;2023-03-14T02:40:58;11.85;;;7.63;;
63016;SDS011;50274;45.640;11.756;2023-03-14T02:43:24;12.45;;;8.32;;
63016;SDS011;50274;45.640;11.756;2023-03-14T02:45:51;14.15;;;8.25;;
63016;SDS011;50274;45.640;11.756;2023-03-14T02:50:59;13.18;;;7.47;;
63016;SDS011;50274;45.640;11.756;2023-03-14T02:53:29;11.77;;;7.00;;
63016;SDS011;50274;45.640;11.756;2023-03-14T02:55:57;10.93;;;6.97;;
63016;SDS011;50274;45.640;11.756;2023-03-14T02:58:23;11.15;;;7.05;;
63016;SDS011;50274;45.640;11.756;2023-03-14T03:00:49;11.27;;;6.50;;
63016;SDS011;50274;45.640;11.756;2023-03-14T03:03:15;11.43;;;6.57;;
63016;SDS011;50274;45.640;11.756;2023-03-14T03:05:41;12.23;;;6.53;;
63016;SDS011;50274;45.640;11.756;2023-03-14T03:08:08;11.77;;;6.82;;
63016;SDS011;50274;45.640;11.756;2023-03-14T03:10:35;11.00;;;6.20;;
63016;SDS011;50274;45.640;11.756;2023-03-14T03:13:01;10.18;;;6.25;;
63016;SDS011;50274;45.640;11.756;2023-03-14T03:15:27;10.88;;;6.53;;
63016;SDS011;50274;45.640;11.756;2023-03-14T03:17:55;9.57;;;5.90;;
63016;SDS011;50274;45.640;11.756;2023-03-14T03:20:21;15.23;;;7.00;;
63016;SDS011;50274;45.640;11.756;2023-03-14T03:22:49;9.57;;;6.07;;
63016;SDS011;50274;45.640;11.756;2023-03-14T03:25:15;10.88;;;6.90;;
63016;SDS011;50274;45.640;11.756;2023-03-14T03:27:41;11.48;;;6.13;;
63016;SDS011;50274;45.640;11.756;2023-03-14T03:30:08;9.17;;;5.73;;
63016;SDS011;50274;45.640;11.756;2023-03-14T03:32:37;10.32;;;5.78;;
63016;SDS011;50274;45.640;11.756;2023-03-14T03:35:03;10.40;;;5.95;;
63016;SDS011;50274;45.640;11.756;2023-03-14T03:37:30;9.68;;;5.25;;
63016;SDS011;50274;45.640;11.756;2023-03-14T03:39:56;9.18;;;5.30;;
63016;SDS011;50274;45.640;11.756;2023-03-14T03:42:22;9.40;;;4.70;;
63016;SDS011;50274;45.640;11.756;2023-03-14T03:44:48;9.75;;;5.65;;
63016;SDS011;50274;45.640;11.756;2023-03-14T03:47:15;12.02;;;5.60;;
63016;SDS011;50274;45.640;11.756;2023-03-14T03:49:41;9.13;;;5.00;;
63016;SDS011;50274;45.640;11.756;2023-03-14T03:52:09;7.38;;;4.63;;
63016;SDS011;50274;45.640;11.756;2023-03-14T03:54:35;10.02;;;4.97;;
63016;SDS011;50274;45.640;11.756;2023-03-14T03:57:01;11.10;;;4.95;;
63016;SDS011;50274;45.640;11.756;2023-03-14T03:59:29;9.70;;;5.80;;
63016;SDS011;50274;45.640;11.756;2023-03-14T04:01:55;11.38;;;5.80;;
63016;SDS011;50274;45.640;11.756;2023-03-14T04:04:21;11.40;;;5.25;;
63016;SDS011;50274;45.640;11.756;2023-03-14T04:06:47;9.10;;;5.00;;
63016;SDS011;50274;45.640;11.756;2023-03-14T04:09:15;9.75;;;5.32;;
63016;SDS011;50274;45.640;11.756;2023-03-14T04:11:40;11.75;;;6.13;;
63016;SDS011;50274;45.640;11.756;2023-03-14T04:14:07;12.95;;;6.00;;
63016;SDS011;50274;45.640;11.756;2023-03-14T04:16:35;12.07;;;5.88;;
63016;SDS011;50274;45.640;11.756;2023-03-14T04:19:01;11.37;;;6.17;;
63016;SDS011;50274;45.640;11.756;2023-03-14T04:21:30;11.65;;;6.00;;
63016;SDS011;50274;45.640;11.756;2023-03-14T04:23:56;8.95;;;5.50;;
63016;SDS011;50274;45.640;11.756;2023-03-14T04:26:22;10.63;;;5.70;;
63016;SDS011;50274;45.640;11.756;2023-03-14T04:28:47;9.60;;;4.60;;
63016;SDS011;50274;45.640;11.756;2023-03-14T04:31:14;9.93;;;6.13;;
63016;SDS011;50274;45.640;11.756;2023-03-14T04:33:42;9.90;;;5.88;;
63016;SDS011;50274;45.640;11.756;2023-03-14T04:36:08;10.40;;;5.87;;
63016;SDS011;50274;45.640;11.756;2023-03-14T04:38:34;9.38;;;5.15;;
63016;SDS011;50274;45.640;11.756;2023-03-14T04:41:02;12.85;;;5.45;;
63016;SDS011;50274;45.640;11.756;2023-03-14T04:43:28;10.38;;;5.15;;
63016;SDS011;50274;45.640;11.756;2023-03-14T04:45:55;9.77;;;5.60;;
63016;SDS011;50274;45.640;11.756;2023-03-14T04:48:22;10.25;;;4.55;;
63016;SDS011;50274;45.640;11.756;2023-03-14T04:50:49;12.55;;;6.10;;
63016;SDS011;50274;45.640;11.756;2023-03-14T04:53:16;9.88;;;5.20;;
63016;SDS011;50274;45.640;11.756;2023-03-14T04:55:47;11.23;;;6.00;;
63016;SDS011;50274;45.640;11.756;2023-03-14T04:58:15;12.37;;;5.87;;
63016;SDS011;50274;45.640;11.756;2023-03-14T05:00:41;12.45;;;6.43;;
63016;SDS011;50274;45.640;11.756;2023-03-14T05:03:07;12.65;;;5.95;;
63016;SDS011;50274;45.640;11.756;2023-03-14T05:05:33;9.27;;;4.83;;
63016;SDS011;50274;45.640;11.756;2023-03-14T05:07:59;11.57;;;5.85;;
63016;SDS011;50274;45.640;11.756;2023-03-14T05:10:25;13.00;;;6.00;;
63016;SDS011;50274;45.640;11.756;2023-03-14T05:12:51;11.20;;;5.53;;
63016;SDS011;50274;45.640;11.756;2023-03-14T05:15:16;11.50;;;5.68;;
63016;SDS011;50274;45.640;11.756;2023-03-14T05:17:42;12.47;;;5.83;;
63016;SDS011;50274;45.640;11.756;2023-03-14T05:20:08;10.68;;;6.10;;
63016;SDS011;50274;45.640;11.756;2023-03-14T05:22:37;12.10;;;5.85;;
63016;SDS011;50274;45.640;11.756;2023-03-14T05:25:06;13.10;;;6.35;;
63016;SDS011;50274;45.640;11.756;2023-03-14T05:27:35;12.10;;;6.07;;
63016;SDS011;50274;45.640;11.756;2023-03-14T05:30:02;13.63;;;5.47;;
63016;SDS011;50274;45.640;11.756;2023-03-14T05:32:31;11.27;;;5.65;;
63016;SDS011;50274;45.640;11.756;2023-03-14T05:34:57;16.40;;;6.40;;
63016;SDS011;50274;45.640;11.756;2023-03-14T05:37:27;12.48;;;6.68;;
63016;SDS011;50274;45.640;11.756;2023-03-14T05:39:55;13.27;;;6.20;;
63016;SDS011;50274;45.640;11.756;2023-03-14T05:42:21;11.85;;;6.30;;
63016;SDS011;50274;45.640;11.756;2023-03-14T05:44:47;12.43;;;6.18;;
63016;SDS011;50274;45.640;11.756;2023-03-14T05:47:13;13.32;;;5.63;;
63016;SDS011;50274;45.640;11.756;2023-03-14T05:49:39;14.87;;;6.67;;
63016;SDS011;50274;45.640;11.756;2023-03-14T05:52:04;24.63;;;8.40;;
63016;SDS011;50274;45.640;11.756;2023-03-14T05:54:30;13.87;;;7.37;;
63016;SDS011;50274;45.640;11.756;2023-03-14T05:56:56;15.17;;;7.33;;
63016;SDS011;50274;45.640;11.756;2023-03-14T05:59:22;11.20;;;5.82;;
63016;SDS011;50274;45.640;11.756;2023-03-14T06:01:53;13.38;;;7.07;;
63016;SDS011;50274;45.640;11.756;2023-03-14T06:04:19;12.70;;;6.17;;
63016;SDS011;50274;45.640;11.756;2023-03-14T06:06:45;10.68;;;5.75;;
63016;SDS011;50274;45.640;11.756;2023-03-14T06:09:11;13.77;;;6.80;;
63016;SDS011;50274;45.640;11.756;2023-03-14T06:11:37;16.77;;;7.30;;
63016;SDS011;50274;45.640;11.756;2023-03-14T06:14:03;18.05;;;7.10;;
63016;SDS011;50274;45.640;11.756;2023-03-14T06:16:28;15.73;;;6.78;;
63016;SDS011;50274;45.640;11.756;2023-03-14T06:18:54;14.77;;;5.90;;
63016;SDS011;50274;45.640;11.756;2023-03-14T06:21:20;13.40;;;6.70;;
63016;SDS011;50274;45.640;11.756;2023-03-14T06:23:46;15.52;;;7.43;;
63016;SDS011;50274;45.640;11.756;2023-03-14T06:26:14;14.93;;;6.50;;
63016;SDS011;50274;45.640;11.756;2023-03-14T06:28:40;15.82;;;6.85;;
63016;SDS011;50274;45.640;11.756;2023-03-14T06:31:06;17.50;;;6.78;;
63016;SDS011;50274;45.640;11.756;2023-03-14T06:33:32;17.70;;;6.63;;
63016;SDS011;50274;45.640;11.756;2023-03-14T06:35:58;14.13;;;6.15;;
63016;SDS011;50274;45.640;11.756;2023-03-14T06:38:23;15.80;;;6.67;;
63016;SDS011;50274;45.640;11.756;2023-03-14T06:40:49;17.48;;;7.63;;
63016;SDS011;50274;45.640;11.756;2023-03-14T06:43:15;13.30;;;6.20;;
63016;SDS011;50274;45.640;11.756;2023-03-14T06:45:43;15.67;;;6.63;;
63016;SDS011;50274;45.640;11.756;2023-03-14T06:48:09;13.02;;;6.10;;
63016;SDS011;50274;45.640;11.756;2023-03-14T06:50:35;12.38;;;6.25;;
63016;SDS011;50274;45.640;11.756;2023-03-14T06:53:01;12.23;;;6.50;;
63016;SDS011;50274;45.640;11.756;2023-03-14T06:55:29;15.13;;;7.95;;
63016;SDS011;50274;45.640;11.756;2023-03-14T06:57:55;12.25;;;6.75;;
63016;SDS011;50274;45.640;11.756;2023-03-14T07:00:20;16.63;;;7.20;;
63016;SDS011;50274;45.640;11.756;2023-03-14T07:02:54;11.93;;;7.18;;
63016;SDS011;50274;45.640;11.756;2023-03-14T07:05:24;18.38;;;9.40;;
63016;SDS011;50274;45.640;11.756;2023-03-14T07:07:50;15.52;;;8.38;;
63016;SDS011;50274;45.640;11.756;2023-03-14T07:10:16;13.90;;;8.13;;
63016;SDS011;50274;45.640;11.756;2023-03-14T07:12:42;16.48;;;8.45;;
63016;SDS011;50274;45.640;11.756;2023-03-14T07:15:08;14.70;;;8.40;;
63016;SDS011;50274;45.640;11.756;2023-03-14T07:17:34;16.77;;;8.13;;
63016;SDS011;50274;45.640;11.756;2023-03-14T07:20:00;13.43;;;7.55;;
63016;SDS011;50274;45.640;11.756;2023-03-14T07:22:26;14.32;;;6.82;;
63016;SDS011;50274;45.640;11.756;2023-03-14T07:24:52;13.17;;;7.10;;
63016;SDS011;50274;45.640;11.756;2023-03-14T07:27:17;15.43;;;8.98;;
63016;SDS011;50274;45.640;11.756;2023-03-14T07:29:43;17.67;;;9.67;;
63016;SDS011;50274;45.640;11.756;2023-03-14T07:32:09;14.65;;;8.32;;
63016;SDS011;50274;45.640;11.756;2023-03-14T07:34:35;12.15;;;7.85;;
63016;SDS011;50274;45.640;11.756;2023-03-14T07:37:01;15.27;;;9.30;;
63016;SDS011;50274;45.640;11.756;2023-03-14T07:39:26;14.75;;;8.45;;
63016;SDS011;50274;45.640;11.756;2023-03-14T07:41:53;14.70;;;8.48;;
63016;SDS011;50274;45.640;11.756;2023-03-14T07:44:18;15.27;;;8.83;;
63016;SDS011;50274;45.640;11.756;2023-03-14T07:46:44;16.05;;;9.52;;
63016;SDS011;50274;45.640;11.756;2023-03-14T07:49:10;16.03;;;9.07;;
63016;SDS011;50274;45.640;11.756;2023-03-14T07:51:36;13.48;;;8.07;;
63016;SDS011;50274;45.640;11.756;2023-03-14T07:54:03;14.35;;;8.43;;
63016;SDS011;50274;45.640;11.756;2023-03-14T07:56:29;16.60;;;9.47;;
63016;SDS011;50274;45.640;11.756;2023-03-14T07:58:54;15.20;;;8.27;;
63016;SDS011;50274;45.640;11.756;2023-03-14T08:01:21;13.55;;;7.93;;
63016;SDS011;50274;45.640;11.756;2023-03-14T08:03:47;17.03;;;9.13;;
63016;SDS011;50274;45.640;11.756;2023-03-14T08:06:12;14.90;;;8.63;;
63016;SDS011;50274;45.640;11.756;2023-03-14T08:08:38;16.60;;;10.00;;
63016;SDS011;50274;45.640;11.756;2023-03-14T08:11:04;14.25;;;8.25;;
63016;SDS011;50274;45.640;11.756;2023-03-14T08:13:33;15.43;;;7.93;;
63016;SDS011;50274;45.640;11.756;2023-03-14T08:16:00;16.73;;;9.55;;
63016;SDS011;50274;45.640;11.756;2023-03-14T08:18:25;16.90;;;9.53;;
63016;SDS011;50274;45.640;11.756;2023-03-14T08:20:51;17.00;;;9.90;;
63016;SDS011;50274;45.640;11.756;2023-03-14T08:23:17;18.00;;;10.10;;
63016;SDS011;50274;45.640;11.756;2023-03-14T08:25:43;17.03;;;8.73;;
63016;SDS011;50274;45.640;11.756;2023-03-14T08:28:09;16.27;;;8.80;;
63016;SDS011;50274;45.640;11.756;2023-03-14T08:30:35;14.43;;;9.10;;
63016;SDS011;50274;45.640;11.756;2023-03-14T08:33:00;15.10;;;8.47;;
63016;SDS011;50274;45.640;11.756;2023-03-14T08:35:26;14.57;;;8.50;;
63016;SDS011;50274;45.640;11.756;2023-03-14T08:37:52;15.25;;;8.93;;
63016;SDS011;50274;45.640;11.756;2023-03-14T08:40:18;13.30;;;7.83;;
63016;SDS011;50274;45.640;11.756;2023-03-14T08:42:44;16.50;;;8.13;;
63016;SDS011;50274;45.640;11.756;2023-03-14T08:45:11;18.10;;;8.90;;
63016;SDS011;50274;45.640;11.756;2023-03-14T08:47:38;17.08;;;8.80;;
63016;SDS011;50274;45.640;11.756;2023-03-14T08:50:05;17.03;;;8.60;;
63016;SDS011;50274;45.640;11.756;2023-03-14T08:52:32;17.00;;;8.63;;
63016;SDS011;50274;45.640;11.756;2023-03-14T08:54:58;16.42;;;9.15;;
63016;SDS011;50274;45.640;11.756;2023-03-14T08:57:24;19.23;;;9.15;;
63016;SDS011;50274;45.640;11.756;2023-03-14T08:59:56;15.87;;;8.27;;
63016;SDS011;50274;45.640;11.756;2023-03-14T09:02:23;14.85;;;8.77;;
63016;SDS011;50274;45.640;11.756;2023-03-14T09:04:50;15.90;;;7.88;;
63016;SDS011;50274;45.640;11.756;2023-03-14T09:07:16;14.80;;;8.43;;
63016;SDS011;50274;45.640;11.756;2023-03-14T09:09:42;13.07;;;6.95;;
63016;SDS011;50274;45.640;11.756;2023-03-14T09:12:08;14.00;;;7.30;;
63016;SDS011;50274;45.640;11.756;2023-03-14T09:14:34;15.02;;;7.63;;
63016;SDS011;50274;45.640;11.756;2023-03-14T09:17:00;13.57;;;7.15;;
63016;SDS011;50274;45.640;11.756;2023-03-14T09:19:26;12.93;;;7.07;;
63016;SDS011;50274;45.640;11.756;2023-03-14T09:21:52;12.68;;;6.35;;
63016;SDS011;50274;45.640;11.756;2023-03-14T09:24:18;15.57;;;8.45;;
63016;SDS011;50274;45.640;11.756;2023-03-14T09:26:43;13.87;;;7.60;;
63016;SDS011;50274;45.640;11.756;2023-03-14T09:29:09;16.58;;;9.05;;
63016;SDS011;50274;45.640;11.756;2023-03-14T09:31:35;17.60;;;9.33;;
63016;SDS011;50274;45.640;11.756;2023-03-14T09:34:01;14.57;;;9.18;;
63016;SDS011;50274;45.640;11.756;2023-03-14T09:36:27;12.68;;;7.38;;
63016;SDS011;50274;45.640;11.756;2023-03-14T09:38:53;12.20;;;7.28;;
63016;SDS011;50274;45.640;11.756;2023-03-14T09:41:26;14.33;;;7.73;;
63016;SDS011;50274;45.640;11.756;2023-03-14T09:44:16;14.30;;;7.13;;
63016;SDS011;50274;45.640;11.756;2023-03-14T09:46:51;18.02;;;8.38;;
63016;SDS011;50274;45.640;11.756;2023-03-14T09:49:30;16.67;;;8.40;;
63016;SDS011;50274;45.640;11.756;2023-03-14T09:52:01;16.30;;;8.60;;
63016;SDS011;50274;45.640;11.756;2023-03-14T09:54:36;18.60;;;9.77;;
63016;SDS011;50274;45.640;11.756;2023-03-14T09:57:08;15.02;;;7.90;;
63016;SDS011;50274;45.640;11.756;2023-03-14T09:59:47;12.65;;;7.18;;
63016;SDS011;50274;45.640;11.756;2023-03-14T10:02:21;18.52;;;8.88;;
63016;SDS011;50274;45.640;11.756;2023-03-14T10:04:50;15.37;;;9.40;;
63016;SDS011;50274;45.640;11.756;2023-03-14T10:07:18;13.82;;;8.18;;
63016;SDS011;50274;45.640;11.756;2023-03-14T10:09:53;13.35;;;8.43;;
63016;SDS011;50274;45.640;11.756;2023-03-14T10:12:19;15.77;;;8.70;;
63016;SDS011;50274;45.640;11.756;2023-03-14T10:14:50;18.30;;;11.17;;
63016;SDS011;50274;45.640;11.756;2023-03-14T10:17:18;15.75;;;9.60;;
63016;SDS011;50274;45.640;11.756;2023-03-14T10:19:52;21.20;;;10.02;;
63016;SDS011;50274;45.640;11.756;2023-03-14T10:22:24;14.20;;;8.38;;
63016;SDS011;50274;45.640;11.756;2023-03-14T10:24:56;15.35;;;9.40;;
63016;SDS011;50274;45.640;11.756;2023-03-14T10:27:28;15.17;;;9.40;;
63016;SDS011;50274;45.640;11.756;2023-03-14T10:29:59;15.13;;;9.15;;
63016;SDS011;50274;45.640;11.756;2023-03-14T10:32:34;20.58;;;9.45;;
63016;SDS011;50274;45.640;11.756;2023-03-14T10:35:11;14.60;;;8.00;;
63016;SDS011;50274;45.640;11.756;2023-03-14T10:37:52;15.48;;;8.65;;
63016;SDS011;50274;45.640;11.756;2023-03-14T10:40:25;13.57;;;8.37;;
63016;SDS011;50274;45.640;11.756;2023-03-14T10:42:57;17.90;;;9.98;;
63016;SDS011;50274;45.640;11.756;2023-03-14T10:45:34;15.70;;;8.07;;
63016;SDS011;50274;45.640;11.756;2023-03-14T10:48:15;19.05;;;9.80;;
63016;SDS011;50274;45.640;11.756;2023-03-14T10:53:39;14.27;;;8.30;;
63016;SDS011;50274;45.640;11.756;2023-03-14T10:56:07;13.38;;;7.95;;
63016;SDS011;50274;45.640;11.756;2023-03-14T10:58:38;14.80;;;7.00;;
63016;SDS011;50274;45.640;11.756;2023-03-14T11:04:10;12.15;;;6.72;;
63016;SDS011;50274;45.640;11.756;2023-03-14T11:09:32;12.38;;;6.60;;
63016;SDS011;50274;45.640;11.756;2023-03-14T11:14:53;16.33;;;7.38;;
63016;SDS011;50274;45.640;11.756;2023-03-14T11:22:47;12.18;;;5.03;;
63016;SDS011;50274;45.640;11.756;2023-03-14T11:30:53;16.70;;;6.40;;
63016;SDS011;50274;45.640;11.756;2023-03-14T11:36:32;14.30;;;7.32;;
63016;SDS011;50274;45.640;11.756;2023-03-14T11:39:41;15.00;;;6.93;;
63016;SDS011;50274;45.640;11.756;2023-03-14T11:42:13;12.55;;;6.60;;
63016;SDS011;50274;45.640;11.756;2023-03-14T11:44:42;13.25;;;6.07;;
63016;SDS011;50274;45.640;11.756;2023-03-14T11:47:30;15.20;;;7.10;;
63016;SDS011;50274;45.640;11.756;2023-03-14T11:50:26;13.13;;;6.20;;
63016;SDS011;50274;45.640;11.756;2023-03-14T11:52:56;13.55;;;5.80;;
63016;SDS011;50274;45.640;11.756;2023-03-14T11:55:28;15.43;;;5.85;;
63016;SDS011;50274;45.640;11.756;2023-03-14T11:58:01;11.77;;;5.80;;
63016;SDS011;50274;45.640;11.756;2023-03-14T12:00:44;13.67;;;5.73;;
63016;SDS011;50274;45.640;11.756;2023-03-14T12:08:47;13.93;;;5.90;;
63016;SDS011;50274;45.640;11.756;2023-03-14T12:11:59;13.00;;;5.80;;
63016;SDS011;50274;45.640;11.756;2023-03-14T12:17:04;12.00;;;5.15;;
63016;SDS011;50274;45.640;11.756;2023-03-14T12:23:22;11.57;;;4.68;;
63016;SDS011;50274;45.640;11.756;2023-03-14T12:25:30;16.58;;;4.95;;
63016;SDS011;50274;45.640;11.756;2023-03-14T12:30:56;14.50;;;5.40;;
63016;SDS011;50274;45.640;11.756;2023-03-14T12:34:10;12.32;;;4.78;;
63016;SDS011;50274;45.640;11.756;2023-03-14T12:37:01;13.30;;;5.32;;
63016;SDS011;50274;45.640;11.756;2023-03-14T12:45:29;12.50;;;5.72;;
63016;SDS011;50274;45.640;11.756;2023-03-14T12:50:36;11.95;;;5.35;;
63016;SDS011;50274;45.640;11.756;2023-03-14T12:55:56;15.67;;;5.80;;
63016;SDS011;50274;45.640;11.756;2023-03-14T12:58:32;14.32;;;6.07;;
63016;SDS011;50274;45.640;11.756;2023-03-14T13:01:04;14.73;;;5.80;;
63016;SDS011;50274;45.640;11.756;2023-03-14T13:04:07;13.32;;;5.22;;
63016;SDS011;50274;45.640;11.756;2023-03-14T13:12:03;15.02;;;5.63;;
63016;SDS011;50274;45.640;11.756;2023-03-14T13:14:41;12.65;;;4.95;;
63016;SDS011;50274;45.640;11.756;2023-03-14T13:17:13;12.80;;;4.88;;
63016;SDS011;50274;45.640;11.756;2023-03-14T13:19:40;12.55;;;4.35;;
63016;SDS011;50274;45.640;11.756;2023-03-14T13:22:22;13.20;;;4.43;;
63016;SDS011;50274;45.640;11.756;2023-03-14T13:24:57;10.40;;;4.05;;
63016;SDS011;50274;45.640;11.756;2023-03-14T13:27:30;11.40;;;4.45;;
63016;SDS011;50274;45.640;11.756;2023-03-14T13:29:58;11.02;;;4.82;;
63016;SDS011;50274;45.640;11.756;2023-03-14T13:32:27;10.27;;;4.77;;
63016;SDS011;50274;45.640;11.756;2023-03-14T13:34:57;11.23;;;4.35;;
63016;SDS011;50274;45.640;11.756;2023-03-14T13:37:24;11.60;;;4.60;;
63016;SDS011;50274;45.640;11.756;2023-03-14T13:39:52;10.93;;;4.20;;
63016;SDS011;50274;45.640;11.756;2023-03-14T13:42:20;10.88;;;4.10;;
63016;SDS011;50274;45.640;11.756;2023-03-14T13:44:50;8.63;;;3.73;;
63016;SDS011;50274;45.640;11.756;2023-03-14T13:47:18;12.77;;;4.80;;
63016;SDS011;50274;45.640;11.756;2023-03-14T13:49:46;14.82;;;4.65;;
63016;SDS011;50274;45.640;11.756;2023-03-14T13:54:57;10.18;;;4.43;;
63016;SDS011;50274;45.640;11.756;2023-03-14T13:57:25;12.43;;;4.33;;
63016;SDS011;50274;45.640;11.756;2023-03-14T13:59:58;10.00;;;4.00;;
63016;SDS011;50274;45.640;11.756;2023-03-14T14:02:36;12.15;;;4.32;;
63016;SDS011;50274;45.640;11.756;2023-03-14T14:05:03;10.32;;;4.45;;
63016;SDS011;50274;45.640;11.756;2023-03-14T14:07:29;11.63;;;4.75;;
63016;SDS011;50274;45.640;11.756;2023-03-14T14:09:55;9.07;;;3.70;;
63016;SDS011;50274;45.640;11.756;2023-03-14T14:12:43;9.25;;;3.90;;
63016;SDS011;50274;45.640;11.756;2023-03-14T14:15:26;12.82;;;5.03;;
63016;SDS011;50274;45.640;11.756;2023-03-14T14:17:55;10.35;;;4.40;;
63016;SDS011;50274;45.640;11.756;2023-03-14T14:20:25;8.95;;;4.07;;
63016;SDS011;50274;45.640;11.756;2023-03-14T14:23:04;12.23;;;4.40;;
63016;SDS011;50274;45.640;11.756;2023-03-14T14:25:32;9.48;;;3.65;;
63016;SDS011;50274;45.640;11.756;2023-03-14T14:27:58;10.98;;;4.20;;
63016;SDS011;50274;45.640;11.756;2023-03-14T14:30:39;11.77;;;3.83;;
63016;SDS011;50274;45.640;11.756;2023-03-14T14:33:12;11.45;;;4.70;;
63016;SDS011;50274;45.640;11.756;2023-03-14T14:35:53;11.90;;;3.63;;
63016;SDS011;50274;45.640;11.756;2023-03-14T14:38:24;10.57;;;3.63;;
63016;SDS011;50274;45.640;11.756;2023-03-14T14:40:51;9.70;;;4.10;;
63016;SDS011;50274;45.640;11.756;2023-03-14T14:43:24;12.05;;;3.70;;
63016;SDS011;50274;45.640;11.756;2023-03-14T14:45:53;8.80;;;3.90;;
63016;SDS011;50274;45.640;11.756;2023-03-14T14:48:22;7.37;;;3.30;;
63016;SDS011;50274;45.640;11.756;2023-03-14T14:50:51;8.75;;;3.50;;
63016;SDS011;50274;45.640;11.756;2023-03-14T14:53:35;11.43;;;4.38;;
63016;SDS011;50274;45.640;11.756;2023-03-14T14:56:15;9.60;;;3.40;;
63016;SDS011;50274;45.640;11.756;2023-03-14T14:58:47;8.70;;;3.35;;
63016;SDS011;50274;45.640;11.756;2023-03-14T15:01:18;7.20;;;3.03;;
63016;SDS011;50274;45.640;11.756;2023-03-14T15:03:49;12.57;;;3.10;;
63016;SDS011;50274;45.640;11.756;2023-03-14T15:06:17;8.75;;;3.20;;
63016;SDS011;50274;45.640;11.756;2023-03-14T15:08:44;9.13;;;3.03;;
63016;SDS011;50274;45.640;11.756;2023-03-14T15:11:15;7.05;;;2.63;;
63016;SDS011;50274;45.640;11.756;2023-03-14T15:13:44;9.70;;;2.80;;
63016;SDS011;50274;45.640;11.756;2023-03-14T15:16:18;14.18;;;3.13;;
63016;SDS011;50274;45.640;11.756;2023-03-14T15:18:55;9.57;;;3.65;;
63016;SDS011;50274;45.640;11.756;2023-03-14T15:21:23;12.27;;;3.60;;
63016;SDS011;50274;45.640;11.756;2023-03-14T15:23:49;9.75;;;3.58;;
63016;SDS011;50274;45.640;11.756;2023-03-14T15:26:17;8.00;;;3.00;;
63016;SDS011;50274;45.640;11.756;2023-03-14T15:28:49;8.77;;;3.10;;
63016;SDS011;50274;45.640;11.756;2023-03-14T15:31:16;8.65;;;3.20;;
63016;SDS011;50274;45.640;11.756;2023-03-14T15:33:43;10.30;;;3.55;;
63016;SDS011;50274;45.640;11.756;2023-03-14T15:36:15;12.25;;;3.95;;
63016;SDS011;50274;45.640;11.756;2023-03-14T15:38:50;10.33;;;3.47;;
63016;SDS011;50274;45.640;11.756;2023-03-14T15:41:17;10.52;;;3.20;;
63016;SDS011;50274;45.640;11.756;2023-03-14T15:43:44;9.23;;;3.65;;
63016;SDS011;50274;45.640;11.756;2023-03-14T15:46:10;9.07;;;3.85;;
63016;SDS011;50274;45.640;11.756;2023-03-14T15:48:37;11.90;;;3.25;;
63016;SDS011;50274;45.640;11.756;2023-03-14T15:51:03;10.50;;;3.00;;